createdAt,value
2023-01-15T00:19:01.000Z,0.0
2023-01-15T00:49:01.000Z,0.0
2023-01-15T01:19:06.285Z,0
2023-01-15T01:49:09.000Z,0.0
2023-01-15T02:19:10.000Z,0.0
2023-01-15T02:49:11.000Z,0.0
2023-01-15T03:19:20.000Z,1.0
2023-01-15T03:49:22.000Z,0.0
2023-01-15T04:19:33.000Z,0.0
2023-01-15T04:49:35.000Z,2.0
2023-01-15T05:19:37.191Z,3
2023-01-15T05:49:41.000Z,0.0
2023-01-15T06:19:42.000Z,0.0
2023-01-15T06:49:44.000Z,0.0
2023-01-15T07:19:49.000Z,1.0
2023-01-15T07:49:50.000Z,11.0
2023-01-15T08:19:53.570Z,32
2023-01-15T08:50:00.000Z,39.0
2023-01-15T09:20:01.000Z,46.0
2023-01-15T09:50:03.000Z,44.0
2023-01-15T10:20:08.000Z,51.0
2023-01-15T10:50:13.497Z,38
2023-01-15T11:20:21.000Z,50.0
2023-01-15T11:50:25.000Z,30.0
2023-01-15T12:20:26.492Z,54
2023-01-15T12:50:31.000Z,37.0
2023-01-15T13:20:36.380Z,57
2023-01-15T13:50:41.349Z,72
2023-01-15T14:20:47.359Z,28
2023-01-15T14:50:57.411Z,26
2023-01-15T15:21:01.530Z,16
2023-01-15T15:51:08.000Z,4.0
2023-01-15T16:21:13.312Z,1
2023-01-15T16:51:17.256Z,0
2023-01-15T17:21:19.306Z,1
2023-01-15T17:51:25.000Z,1.0
2023-01-15T18:21:30.301Z,1
2023-01-15T18:51:37.106Z,1
2023-01-15T19:21:40.000Z,1.0
2023-01-15T19:51:47.053Z,2
2023-01-15T20:21:53.023Z,1
2023-01-15T20:51:55.019Z,1
2023-01-15T21:22:05.925Z,1
2023-01-15T21:52:07.000Z,1.0
2023-01-15T22:22:12.896Z,0
2023-01-15T22:52:22.066Z,1
2023-01-15T23:22:30.883Z,0
2023-01-15T23:52:39.966Z,0
